Perugia / San Egidio Airport LIRZ

Flugplatz Daten

Name: Perugia / San Egidio Airport

Ident: LIRZ

Lat: 43,09590149

Long: 12,51319981

Platzhöhe: 697 ft

IataCode: PEG

City: Perugia

Metar

2021/08/05 13:20
LIRZ 051320Z AUTO 29014KT 9999 NCD 30/11 Q1009

Taf

2021/08/05 12:21
TAF LIRZ 051100Z 0512/0612 28012KT 9999 SCT040
BECMG 0518/0520 VRB05KT
BECMG 0608/0610 27010KT
Gewünschte Webcam nicht vorhanden? Dann fügen Sie eine hinzu. Sie wird dann so schnell wie möglich freigeschaltet
Url: Title: